Time,TemperatureF,DewpointF,PressureIn,WindDirection,WindDirectionDegrees,WindSpeedMPH,WindSpeedGustMPH,Humidity,HourlyPrecipIn,Conditions,Clouds,dailyrainin,SoftwareType,DateUTC
2013-11-26 00:03:00,-999.0,-99.9,30.36,SW,231,5.0,10.0,-999,-99.99,,,-99.99,,2013-11-26 05:03:00,
2013-11-26 00:13:00,-999.0,-99.9,30.36,SW,224,4.0,11.0,-999,-99.99,,,-99.99,,2013-11-26 05:13:00,
2013-11-26 00:23:00,-999.0,-99.9,30.36,SW,226,4.0,9.0,-999,-99.99,,,-99.99,,2013-11-26 05:23:00,
2013-11-26 00:34:00,-999.0,-99.9,30.36,WSW,241,4.0,10.0,-999,-99.99,,,-99.99,,2013-11-26 05:34:00,
2013-11-26 01:03:00,-999.0,-99.9,30.35,SW,214,5.0,12.0,-999,-99.99,,,-99.99,,2013-11-26 06:03:00,
2013-11-26 01:22:00,-999.0,-99.9,30.34,SW,228,5.0,10.0,-999,-99.99,,,-99.99,,2013-11-26 06:22:00,
2013-11-26 01:32:00,-999.0,-99.9,30.33,SSW,213,5.0,9.0,-999,-99.99,,,-99.99,,2013-11-26 06:32:00,
2013-11-26 02:02:00,-999.0,-99.9,30.34,WSW,244,5.0,13.0,-999,-99.99,,,-99.99,,2013-11-26 07:02:00,
2013-11-26 02:32:00,-999.0,-99.9,30.34,SW,233,5.0,11.0,-999,-99.99,,,-99.99,,2013-11-26 07:32:00,
2013-11-26 03:11:00,-999.0,-99.9,30.33,SW,214,4.0,8.0,-999,-99.99,,,-99.99,,2013-11-26 08:11:00,
2013-11-26 03:22:00,-999.0,-99.9,30.34,SW,216,5.0,8.0,-999,-99.99,,,-99.99,,2013-11-26 08:22:00,
2013-11-26 03:32:00,-999.0,-99.9,30.33,SSW,213,2.0,7.0,-999,-99.99,,,-99.99,,2013-11-26 08:32:00,
2013-11-26 03:42:00,-999.0,-99.9,30.33,SW,228,2.0,8.0,-999,-99.99,,,-99.99,,2013-11-26 08:42:00,
2013-11-26 04:02:00,-999.0,-99.9,30.32,SW,226,3.0,7.0,-999,-99.99,,,-99.99,,2013-11-26 09:02:00,
2013-11-26 04:22:00,-999.0,-99.9,30.32,SW,216,4.0,6.0,-999,-99.99,,,-99.99,,2013-11-26 09:22:00,
2013-11-26 04:44:00,-999.0,-99.9,30.31,SSW,198,5.0,8.0,-999,-99.99,,,-99.99,,2013-11-26 09:44:00,
2013-11-26 05:23:00,-999.0,-99.9,30.33,SSW,208,6.0,10.0,-999,-99.99,,,-99.99,,2013-11-26 10:23:00,
2013-11-26 05:33:00,-999.0,-99.9,30.32,SSW,199,5.0,8.0,-999,-99.99,,,-99.99,,2013-11-26 10:33:00,
2013-11-26 05:53:00,-999.0,-99.9,30.34,West,277,3.0,7.0,-999,-99.99,,,-99.99,,2013-11-26 10:53:00,
2013-11-26 06:12:00,-999.0,-99.9,30.34,WSW,257,2.0,7.0,-999,-99.99,,,-99.99,,2013-11-26 11:12:00,
2013-11-26 06:23:00,-999.0,-99.9,30.34,SW,225,3.0,6.0,-999,-99.99,,,-99.99,,2013-11-26 11:23:00,
2013-11-26 06:33:00,-999.0,-99.9,30.34,SW,227,2.0,4.0,-999,-99.99,,,-99.99,,2013-11-26 11:33:00,
2013-11-26 06:53:00,-999.0,-99.9,30.33,SSW,208,2.0,6.0,-999,-99.99,,,-99.99,,2013-11-26 11:53:00,
2013-11-26 07:02:00,-999.0,-99.9,30.33,SW,222,2.0,4.0,-999,-99.99,,,-99.99,,2013-11-26 12:02:00,
2013-11-26 07:12:00,-999.0,-99.9,30.32,SW,221,1.0,6.0,-999,-99.99,,,-99.99,,2013-11-26 12:12:00,
2013-11-26 07:22:00,-999.0,-99.9,30.34,West,260,4.0,5.0,-999,-99.99,,,-99.99,,2013-11-26 12:22:00,
2013-11-26 07:42:00,-999.0,-99.9,30.34,WSW,257,3.0,7.0,-999,-99.99,,,-99.99,,2013-11-26 12:42:00,
2013-11-26 08:02:00,-999.0,-99.9,30.32,West,271,2.0,3.0,-999,-99.99,,,-99.99,,2013-11-26 13:02:00,
2013-11-26 08:11:00,-999.0,-99.9,30.33,West,262,4.0,6.0,-999,-99.99,,,-99.99,,2013-11-26 13:11:00,
2013-11-26 08:22:00,-999.0,-99.9,30.33,West,278,4.0,8.0,-999,-99.99,,,-99.99,,2013-11-26 13:22:00,
2013-11-26 08:32:00,-999.0,-99.9,30.34,WSW,253,3.0,5.0,-999,-99.99,,,-99.99,,2013-11-26 13:32:00,
2013-11-26 09:22:00,-999.0,-99.9,30.33,West,263,2.0,4.0,-999,-99.99,,,-99.99,,2013-11-26 14:22:00,
2013-11-26 09:42:00,-999.0,-99.9,30.34,NW,306,3.0,4.0,-999,-99.99,,,-99.99,,2013-11-26 14:42:00,
2013-11-26 09:52:00,-999.0,-99.9,30.34,SW,232,1.0,3.0,-999,-99.99,,,-99.99,,2013-11-26 14:52:00,
2013-11-26 10:12:00,-999.0,-99.9,30.35,WSW,251,2.0,6.0,-999,-99.99,,,-99.99,,2013-11-26 15:12:00,
2013-11-26 11:13:00,-999.0,-99.9,30.32,SSW,210,5.0,7.0,-999,-99.99,,,-99.99,,2013-11-26 16:13:00,
2013-11-26 11:54:00,-999.0,-99.9,30.31,SSW,211,5.0,7.0,-999,-99.99,,,-99.99,,2013-11-26 16:54:00,
2013-11-26 12:03:00,-999.0,-99.9,30.31,WSW,239,4.0,8.0,-999,-99.99,,,-99.99,,2013-11-26 17:03:00,
2013-11-26 12:22:00,-999.0,-99.9,30.29,West,261,1.0,4.0,-999,-99.99,,,-99.99,,2013-11-26 17:22:00,
2013-11-26 12:43:00,-999.0,-99.9,30.28,WNW,293,3.0,4.0,-999,-99.99,,,-99.99,,2013-11-26 17:43:00,
2013-11-26 13:22:00,-999.0,-99.9,30.27,NE,41,2.0,3.0,-999,-99.99,,,-99.99,,2013-11-26 18:22:00,
2013-11-26 14:22:00,-999.0,-99.9,30.23,ENE,60,1.0,4.0,-999,-99.99,,,-99.99,,2013-11-26 19:22:00,
2013-11-26 14:32:00,-999.0,-99.9,30.23,NE,54,4.0,6.0,-999,-99.99,,,-99.99,,2013-11-26 19:32:00,
2013-11-26 14:52:00,-999.0,-99.9,30.23,ESE,108,4.0,5.0,-999,-99.99,,,-99.99,,2013-11-26 19:52:00,
2013-11-26 15:02:00,-999.0,-99.9,30.23,ESE,112,4.0,6.0,-999,-99.99,,,-99.99,,2013-11-26 20:02:00,
2013-11-26 15:22:00,-999.0,-99.9,30.23,SE,137,2.0,6.0,-999,-99.99,,,-99.99,,2013-11-26 20:22:00,
2013-11-26 15:32:00,-999.0,-99.9,30.22,ESE,118,3.0,4.0,-999,-99.99,,,-99.99,,2013-11-26 20:32:00,
2013-11-26 15:42:00,-999.0,-99.9,30.22,SE,141,2.0,4.0,-999,-99.99,,,-99.99,,2013-11-26 20:42:00,
2013-11-26 15:53:00,-999.0,-99.9,30.21,ESE,116,3.0,4.0,-999,-99.99,,,-99.99,,2013-11-26 20:53:00,
2013-11-26 16:02:00,-999.0,-99.9,30.21,East,99,5.0,7.0,-999,-99.99,,,-99.99,,2013-11-26 21:02:00,
2013-11-26 16:22:00,-999.0,-99.9,30.19,East,90,5.0,6.0,-999,-99.99,,,-99.99,,2013-11-26 21:22:00,
2013-11-26 17:03:00,-999.0,-99.9,30.19,East,85,3.0,7.0,-999,-99.99,,,-99.99,,2013-11-26 22:03:00,
2013-11-26 17:13:00,-999.0,-99.9,30.18,East,97,4.0,6.0,-999,-99.99,,,-99.99,,2013-11-26 22:13:00,
2013-11-26 17:33:00,-999.0,-99.9,30.18,East,90,3.0,5.0,-999,-99.99,,,-99.99,,2013-11-26 22:33:00,
2013-11-26 17:43:00,-999.0,-99.9,30.18,East,99,5.0,6.0,-999,-99.99,,,-99.99,,2013-11-26 22:43:00,
2013-11-26 17:53:00,-999.0,-99.9,30.18,East,85,3.0,7.0,-999,-99.99,,,-99.99,,2013-11-26 22:53:00,
2013-11-26 18:02:00,-999.0,-99.9,30.17,East,92,5.0,7.0,-999,-99.99,,,-99.99,,2013-11-26 23:02:00,
2013-11-26 18:22:00,-999.0,-99.9,30.16,East,93,6.0,7.0,-999,-99.99,,,-99.99,,2013-11-26 23:22:00,
2013-11-26 18:43:00,-999.0,-99.9,30.14,East,91,6.0,10.0,-999,-99.99,,,-99.99,,2013-11-26 23:43:00,
2013-11-26 19:42:00,-999.0,-99.9,30.12,East,91,4.0,9.0,-999,-99.99,,,-99.99,,2013-11-27 00:42:00,
2013-11-26 19:52:00,40.0,-99.9,30.11,North,-999,-999.0,-999.0,-999,-99.99,,,-99.99,,2013-11-27 00:52:00,
2013-11-26 20:02:00,-999.0,-99.9,30.10,East,86,6.0,8.0,-999,-99.99,,,-99.99,,2013-11-27 01:02:00,
2013-11-26 20:32:00,-999.0,-99.9,30.07,ENE,66,6.0,10.0,-999,-99.99,,,-99.99,,2013-11-27 01:32:00,
2013-11-26 20:42:00,-999.0,-99.9,30.07,ENE,64,5.0,7.0,-999,-99.99,,,-99.99,,2013-11-27 01:42:00,
2013-11-26 20:52:00,-999.0,-99.9,30.06,East,87,4.0,8.0,-999,-99.99,,,-99.99,,2013-11-27 01:52:00,
2013-11-26 21:12:00,-999.0,-99.9,30.04,East,88,5.0,9.0,-999,-99.99,,,-99.99,,2013-11-27 02:12:00,
2013-11-26 21:42:00,-999.0,-99.9,29.99,ENE,62,3.0,5.0,-999,-99.99,,,-99.99,,2013-11-27 02:42:00,
2013-11-26 21:52:00,43.0,-99.9,29.97,North,-999,-999.0,-999.0,-999,-99.99,,,-99.99,,2013-11-27 02:52:00,
2013-11-26 22:22:00,-999.0,-99.9,29.93,East,82,4.0,10.0,-999,-99.99,,,-99.99,,2013-11-27 03:22:00,
2013-11-26 22:34:00,-999.0,-99.9,29.93,East,90,5.0,8.0,-999,-99.99,,,-99.99,,2013-11-27 03:34:00,
2013-11-26 22:54:00,-999.0,-99.9,29.90,ESE,106,2.0,7.0,-999,-99.99,,,-99.99,,2013-11-27 03:54:00,
2013-11-26 23:13:00,-999.0,-99.9,29.87,East,99,9.0,13.0,-999,-99.99,,,-99.99,,2013-11-27 04:13:00,